Impacts TAF Board
For situational awareness. Not to be used for flight planning purposes.
IDs:

KFPR - Ft Pierce/St Lucie I, FL, US

Issued at 1749 UTC 21 Sep 2021
Updated at 2120 UTC 21 Sep 2021
Potential Impact None Slight Moderate High
Time2053Z 21/22Z 21/23Z 22/00Z 22/01Z 22/02Z 22/03Z 22/04Z 22/05Z 22/06Z 22/07Z 22/08Z 22/09Z 22/10Z>>
Type OBS PRVL PRVL PRVL PRVL PRVL PRVL PRVL PRVL PRVL PRVL PRVL PRVL PRVL
VIS 10 5 >6 >6 >6 >6 >6 >6 >6 >6 >6 >6 >6 >6
CIG -- 200 -- -- -- -- -- -- -- -- -- -- -- --
Cover CLR BKN SCT SCT SCT SCT SCT SCT SCT SCT SCT SCT SCT SCT
FltCat VFR MVFR VFR VFR VFR VFR VFR VFR VFR VFR VFR VFR VFR VFR
WX -- -SHRA -- -- -- -- -- -- -- -- -- -- -- --
WDir 90 110 VRB VRB VRB VRB VRB VRB VRB VRB VRB VRB VRB VRB
WSpd 5 7 3 3 3 3 3 3 3 3 3 3 3 3
WGst -- -- -- -- -- -- -- -- -- -- -- -- -- --
Raw TAF
KFPR 211749Z 2118/2218 11006KT P6SM -RA FEW020 SCT050
  FM212100 11007KT 5SM -SHRA SCT035 BKN200
  FM212300 VRB03KT P6SM FEW035 SCT150


Raw METAR
KFPR 212053Z 09005KT 10SM CLR 27/23 A3002 RMK AO2 LTG DSNT W SLP163 60000 T02720228 58008
KFPR 211953Z 09005KT 10SM FEW065 27/23 A3003 RMK AO2 SLP168 T02720233
KFPR 211853Z 10005KT 10SM FEW037 SCT047 27/24 A3004 RMK AO2 RAE07 SLP173 P0000 T02720239

METAR Board
Radar Display
Forecast Discussion
For situational awareness. Not to be used for flight planning purposes.